Time;durP1;ratioP1;P1;durP2;ratioP2;P2;SDS_P1;SDS_P2;PMS_P1;PMS_P2;Temp;Humidity;BMP_temperature;BMP_pressure;BME280_temperature;BME280_humidity;BME280_pressure;Samples;Min_cycle;Max_cycle;Signal;HPM_P1;HPM_P2
2022/02/18 20:45:13;;;;;;;2.90;0.52;;;;;;;4.87;100.00;94594.06;5150302;27;20752;-64
2022/02/18 20:47:38;;;;;;;2.25;0.50;;;;;;;4.85;100.00;94609.44;5150639;27;20058;-65
2022/02/18 20:50:05;;;;;;;1.67;0.40;;;;;;;4.83;100.00;94617.63;5141394;27;20027;-65
2022/02/18 20:52:30;;;;;;;0.75;0.38;;;;;;;4.83;100.00;94614.97;5129815;27;20474;-66
2022/02/18 20:55:02;;;;;;;0.93;0.45;;;;;;;4.83;100.00;94617.63;5129091;27;20094;-66
2022/02/18 20:57:27;;;;;;;2.38;0.30;;;;;;;4.82;100.00;94617.88;5129664;27;20031;-66
2022/02/18 20:59:53;;;;;;;1.17;0.40;;;;;;;4.80;100.00;94614.66;5128543;28;20069;-66
2022/02/18 21:02:18;;;;;;;2.38;0.60;;;;;;;4.81;100.00;94608.31;5127783;28;20445;-66
2022/02/18 21:04:44;;;;;;;1.17;0.50;;;;;;;4.80;100.00;94617.31;5129372;27;20528;-66
2022/02/18 21:07:11;;;;;;;3.30;0.50;;;;;;;4.83;100.00;94632.75;5129268;28;20042;-66
2022/02/18 21:09:39;;;;;;;1.17;0.40;;;;;;;4.81;100.00;94622.38;5129122;27;20023;-66
2022/02/18 21:12:05;;;;;;;0.85;0.50;;;;;;;4.83;100.00;94648.66;5129450;27;20126;-66
2022/02/18 21:14:36;;;;;;;2.28;0.60;;;;;;;4.85;100.00;94638.63;5129323;27;20094;-65
2022/02/18 21:17:01;;;;;;;0.90;0.47;;;;;;;4.88;100.00;94654.06;5129054;27;20110;-65
2022/02/18 21:19:27;;;;;;;2.17;0.82;;;;;;;4.88;100.00;94644.28;5129296;27;20095;-66
2022/02/18 21:21:52;;;;;;;0.95;0.63;;;;;;;4.88;100.00;94641.63;5128896;27;20023;-65
2022/02/18 21:24:18;;;;;;;2.70;0.60;;;;;;;4.87;100.00;94649.78;5128601;27;20072;-66
2022/02/18 21:26:43;;;;;;;2.90;0.40;;;;;;;4.89;100.00;94653.03;5129073;27;20069;-66
2022/02/18 21:29:09;;;;;;;2.72;0.40;;;;;;;4.91;100.00;94643.78;5128998;27;20028;-66
2022/02/18 21:31:35;;;;;;;2.30;0.50;;;;;;;4.92;100.00;94648.03;5126705;27;20039;-65
2022/02/18 21:34:00;;;;;;;2.90;0.57;;;;;;;4.93;100.00;94646.19;5134192;27;20461;-65
2022/02/18 21:36:26;;;;;;;4.95;0.63;;;;;;;4.95;100.00;94638.78;5149707;27;20504;-66
2022/02/18 21:38:52;;;;;;;1.65;0.73;;;;;;;4.95;100.00;94652.06;5147622;27;20500;-66
2022/02/18 21:41:18;;;;;;;0.40;0.40;;;;;;;4.98;100.00;94658.72;5149808;27;20358;-66
2022/02/18 21:43:44;;;;;;;0.80;0.50;;;;;;;4.98;100.00;94650.78;5128579;27;20051;-66
2022/02/18 21:46:11;;;;;;;2.53;0.45;;;;;;;4.98;100.00;94654.22;5127177;27;20015;-66
2022/02/18 21:48:37;;;;;;;1.90;0.43;;;;;;;4.97;100.00;94649.16;5130722;27;20031;-66
2022/02/18 21:51:03;;;;;;;1.55;0.30;;;;;;;4.97;100.00;94651.81;5132077;27;20051;-66
2022/02/18 21:53:28;;;;;;;2.72;0.55;;;;;;;4.96;100.00;94653.66;5128501;27;20076;-66
2022/02/18 21:56:01;;;;;;;1.88;0.73;;;;;;;4.96;100.00;94643.06;5116928;27;20077;-66
2022/02/18 21:58:26;;;;;;;1.55;0.60;;;;;;;4.98;100.00;94648.91;5135638;27;20027;-67
2022/02/18 22:00:52;;;;;;;4.28;0.50;;;;;;;4.98;100.00;94645.47;5135433;27;20680;-67
2022/02/18 22:03:23;;;;;;;2.88;0.60;;;;;;;4.94;100.00;94640.63;5135792;27;20393;-66
2022/02/18 22:05:49;;;;;;;3.45;0.85;;;;;;;4.94;100.00;94642.50;5136279;27;20027;-67
2022/02/18 22:08:14;;;;;;;1.25;0.47;;;;;;;4.92;100.00;94641.94;5136153;27;20027;-67
2022/02/18 22:10:40;;;;;;;1.40;0.60;;;;;;;4.88;100.00;94628.34;5136127;27;20023;-67
2022/02/18 22:13:08;;;;;;;2.20;0.50;;;;;;;4.89;100.00;94643.22;5136073;27;20473;-67
2022/02/18 22:15:38;;;;;;;1.60;0.57;;;;;;;4.89;100.00;94637.13;5135859;27;20071;-67
2022/02/18 22:18:12;;;;;;;3.38;0.55;;;;;;;4.88;100.00;94636.31;5135988;27;20023;-67
2022/02/18 22:20:37;;;;;;;3.42;0.80;;;;;;;4.88;100.00;94630.16;5134615;27;20027;-67
2022/02/18 22:23:03;;;;;;;0.65;0.45;;;;;;;4.86;100.00;94649.00;5135898;27;20023;-67
2022/02/18 22:25:28;;;;;;;2.55;0.50;;;;;;;4.85;100.00;94660.66;5134506;27;20030;-67
2022/02/18 22:27:53;;;;;;;2.45;0.55;;;;;;;4.84;100.00;94659.03;5135708;27;20027;-67
2022/02/18 22:30:19;;;;;;;2.63;0.70;;;;;;;4.82;100.00;94660.34;5135790;27;20102;-67
2022/02/18 22:32:44;;;;;;;3.90;0.70;;;;;;;4.79;100.00;94655.50;5134480;27;20477;-66
2022/02/18 22:35:13;;;;;;;1.80;0.60;;;;;;;4.76;100.00;94661.28;5134818;27;20473;-67
2022/02/18 22:37:38;;;;;;;3.20;0.70;;;;;;;4.75;100.00;94657.81;5134626;27;20035;-66
2022/02/18 22:40:08;;;;;;;2.50;0.40;;;;;;;4.76;100.00;94679.84;5134372;27;20027;-67
2022/02/18 22:42:33;;;;;;;6.45;0.80;;;;;;;4.75;100.00;94672.94;5126339;27;20019;-67
2022/02/18 22:45:08;;;;;;;3.53;0.88;;;;;;;4.72;100.00;94660.97;5114705;27;20059;-67
2022/02/18 22:47:37;;;;;;;3.30;0.70;;;;;;;4.68;100.00;94667.78;5115111;28;20382;-67
2022/02/18 22:50:03;;;;;;;3.03;0.70;;;;;;;4.66;100.00;94688.44;5113631;27;20094;-67
2022/02/18 22:52:28;;;;;;;3.88;0.70;;;;;;;4.66;100.00;94683.13;5135781;27;20156;-67
2022/02/18 22:54:53;;;;;;;3.30;0.65;;;;;;;4.63;100.00;94689.72;5135229;27;20529;-67
2022/02/18 22:57:19;;;;;;;2.45;0.73;;;;;;;4.61;100.00;94689.16;5134056;27;20023;-67
2022/02/18 22:59:45;;;;;;;3.90;0.80;;;;;;;4.61;100.00;94689.16;5133913;27;20035;-67
2022/02/18 23:02:10;;;;;;;4.22;0.80;;;;;;;4.59;100.00;94707.16;5133880;27;20092;-67
2022/02/18 23:04:36;;;;;;;3.78;1.00;;;;;;;4.59;100.00;94701.84;5134958;27;20019;-67
2022/02/18 23:07:07;;;;;;;3.60;0.90;;;;;;;4.57;100.00;94709.25;5134270;27;20023;-67
2022/02/18 23:09:32;;;;;;;6.10;0.65;;;;;;;4.59;100.00;94717.75;5133727;27;20030;-67
2022/02/18 23:11:58;;;;;;;4.32;0.93;;;;;;;4.60;100.00;94716.72;5133775;27;20027;-66
2022/02/18 23:14:23;;;;;;;2.17;0.82;;;;;;;4.64;100.00;94706.44;5133536;27;20102;-67
2022/02/18 23:16:49;;;;;;;3.08;0.60;;;;;;;4.64;100.00;94693.16;5135031;27;20015;-67
2022/02/18 23:19:14;;;;;;;2.60;0.75;;;;;;;4.63;100.00;94700.31;5134888;27;20076;-66
2022/02/18 23:21:40;;;;;;;3.58;0.82;;;;;;;4.63;100.00;94699.50;5133373;27;20083;-67
2022/02/18 23:24:09;;;;;;;5.40;0.98;;;;;;;4.61;100.00;94720.19;5134299;27;20019;-67
2022/02/18 23:26:41;;;;;;;4.88;0.88;;;;;;;4.64;100.00;94722.34;5134690;27;20108;-67
2022/02/18 23:29:06;;;;;;;4.53;0.70;;;;;;;4.64;100.00;94722.34;5134576;27;20023;-67
2022/02/18 23:31:38;;;;;;;4.15;0.90;;;;;;;4.62;100.00;94733.19;5134557;27;20034;-67
2022/02/18 23:34:03;;;;;;;5.20;1.15;;;;;;;4.60;100.00;94726.53;5133378;27;20027;-67
2022/02/18 23:36:32;;;;;;;7.47;1.05;;;;;;;4.56;100.00;94739.47;5134492;27;20195;-66
2022/02/18 23:38:57;;;;;;;2.03;0.90;;;;;;;4.47;100.00;94738.22;5134455;27;20019;-67
2022/02/18 23:41:26;;;;;;;4.63;1.33;;;;;;;4.44;100.00;94757.22;5134498;27;20038;-67
2022/02/18 23:43:58;;;;;;;5.25;1.00;;;;;;;4.38;100.00;94739.63;5114478;27;20044;-67
2022/02/18 23:46:26;;;;;;;9.82;1.05;;;;;;;4.33;100.00;94750.91;5117375;28;20015;-67
2022/02/18 23:48:52;;;;;;;3.22;0.90;;;;;;;4.22;100.00;94754.38;5118842;28;20020;-66
2022/02/18 23:51:18;;;;;;;3.83;0.93;;;;;;;4.15;100.00;94764.34;5128258;27;20051;-66
2022/02/18 23:53:43;;;;;;;4.78;0.90;;;;;;;4.13;100.00;94769.06;5136981;27;20019;-66
2022/02/18 23:56:08;;;;;;;5.15;1.42;;;;;;;4.08;100.00;94788.28;5135737;27;20027;-66
2022/02/18 23:58:37;;;;;;;4.22;0.80;;;;;;;4.01;100.00;94787.59;5136422;27;20033;-67
